Time;durP1;ratioP1;P1;durP2;ratioP2;P2;SDS_P1;SDS_P2;PMS_P1;PMS_P2;Temp;Humidity;BMP_temperature;BMP_pressure;BME280_temperature;BME280_humidity;BME280_pressure;Samples;Min_cycle;Max_cycle;Signal;HPM_P1;HPM_P2
2024/02/14 00:00:56;;;;;;;20.70;15.00;;;;;;;12.29;65.48;100489.86;109503;1252;73426;-64
2024/02/14 00:03:24;;;;;;;27.60;17.20;;;;;;;12.26;65.43;100487.64;109474;1252;72832;-63
2024/02/14 00:05:52;;;;;;;28.00;17.80;;;;;;;12.23;65.52;100488.39;109503;1251;71508;-64
2024/02/14 00:08:21;;;;;;;24.10;18.10;;;;;;;12.21;65.67;100489.49;109514;1253;60015;-63
2024/02/14 00:10:48;;;;;;;26.20;17.00;;;;;;;12.21;65.80;100486.67;109538;1251;59206;-63
2024/02/14 00:13:18;;;;;;;25.30;16.70;;;;;;;12.22;65.94;100484.75;109463;1253;73414;-60
2024/02/14 00:15:46;;;;;;;28.10;17.40;;;;;;;12.22;65.98;100485.25;109520;1253;73729;-60
2024/02/14 00:18:15;;;;;;;24.50;16.50;;;;;;;12.22;66.05;100480.17;109521;1251;71416;-60
2024/02/14 00:20:43;;;;;;;28.10;15.40;;;;;;;12.21;66.16;100476.50;109550;1251;60490;-61
2024/02/14 00:23:11;;;;;;;23.70;14.90;;;;;;;12.19;66.29;100479.51;109542;1252;59033;-61
2024/02/14 00:25:39;;;;;;;25.70;15.50;;;;;;;12.21;66.39;100483.36;109285;1251;74221;-61
2024/02/14 00:28:06;;;;;;;23.70;17.50;;;;;;;12.22;66.24;100488.60;109546;1251;72853;-61
2024/02/14 00:30:34;;;;;;;27.60;17.50;;;;;;;12.24;66.04;100487.88;109457;1253;72742;-64
2024/02/14 00:33:02;;;;;;;27.70;19.30;;;;;;;12.24;65.98;100488.38;109511;1252;60101;-64
2024/02/14 00:35:30;;;;;;;30.00;19.60;;;;;;;12.24;65.74;100491.04;109466;1252;60087;-65
2024/02/14 00:37:58;;;;;;;27.50;18.90;;;;;;;12.22;65.72;100494.92;109476;1254;74640;-66
2024/02/14 00:40:26;;;;;;;27.80;20.70;;;;;;;12.21;65.47;100501.98;109385;1252;71912;-64
2024/02/14 00:42:53;;;;;;;28.80;20.70;;;;;;;12.18;65.35;100503.27;109455;1251;72754;-65
2024/02/14 00:45:22;;;;;;;23.30;17.90;;;;;;;12.14;65.15;100508.09;109520;1251;61709;-64
2024/02/14 00:47:50;;;;;;;24.40;18.20;;;;;;;12.09;64.88;100508.36;109241;1251;60128;-65
2024/02/14 00:50:17;;;;;;;23.30;16.50;;;;;;;12.06;64.72;100510.16;109579;1251;75136;-65
2024/02/14 00:52:45;;;;;;;22.20;15.50;;;;;;;12.02;64.69;100509.36;109524;1251;71612;-65
2024/02/14 00:55:13;;;;;;;22.40;15.60;;;;;;;11.99;64.44;100511.70;109481;1251;71432;-65
2024/02/14 00:57:41;;;;;;;22.70;16.60;;;;;;;11.95;64.32;100512.29;109215;1251;59063;-66
2024/02/14 01:00:09;;;;;;;22.30;17.10;;;;;;;11.91;64.16;100509.88;109505;1251;59161;-66
2024/02/14 01:02:36;;;;;;;24.00;15.60;;;;;;;11.87;64.20;100507.65;109531;1251;75157;-65
2024/02/14 01:05:04;;;;;;;24.90;16.90;;;;;;;11.84;64.23;100512.98;109525;1251;71683;-64
2024/02/14 01:07:32;;;;;;;24.00;16.80;;;;;;;11.81;64.28;100513.90;109246;1251;71473;-63
2024/02/14 01:10:00;;;;;;;24.80;17.20;;;;;;;11.80;64.38;100519.38;109527;1251;61693;-63
2024/02/14 01:12:29;;;;;;;27.10;17.50;;;;;;;11.77;64.53;100519.95;109557;1254;59110;-62
2024/02/14 01:14:57;;;;;;;23.70;16.50;;;;;;;11.77;64.54;100520.64;109266;1251;74854;-62
2024/02/14 01:17:24;;;;;;;27.10;17.60;;;;;;;11.76;64.58;100523.13;109622;1251;71327;-62
2024/02/14 01:19:52;;;;;;;26.30;17.50;;;;;;;11.76;64.60;100520.85;109499;1252;74034;-61
2024/02/14 01:22:22;;;;;;;26.90;17.80;;;;;;;11.76;64.51;100526.46;109243;1253;60133;-62
2024/02/14 01:24:50;;;;;;;28.10;18.60;;;;;;;11.76;64.52;100525.41;109452;1253;58962;-62
2024/02/14 01:27:18;;;;;;;25.90;19.10;;;;;;;11.76;64.50;100525.59;109483;1253;74705;-62
2024/02/14 01:29:46;;;;;;;30.70;18.70;;;;;;;11.76;64.55;100528.41;109400;1252;72841;-62
2024/02/14 01:32:13;;;;;;;26.30;19.20;;;;;;;11.73;64.52;100531.27;109122;1254;71457;-63
2024/02/14 01:34:44;;;;;;;28.10;19.90;;;;;;;11.70;64.73;100534.98;109501;1251;60140;-62
2024/02/14 01:37:11;;;;;;;26.50;18.70;;;;;;;11.69;64.73;100539.94;109527;1252;58969;-63
2024/02/14 01:39:39;;;;;;;30.80;19.60;;;;;;;11.67;64.71;100537.85;109276;1251;73452;-64
2024/02/14 01:42:07;;;;;;;28.10;19.90;;;;;;;11.66;64.81;100538.93;109401;1251;72843;-62
2024/02/14 01:44:36;;;;;;;26.30;19.60;;;;;;;11.62;64.73;100538.80;109518;1251;71382;-61
2024/02/14 01:47:06;;;;;;;26.10;18.70;;;;;;;11.59;64.83;100537.45;109527;1253;59314;-63
2024/02/14 01:49:34;;;;;;;28.10;21.00;;;;;;;11.56;64.88;100541.89;109430;1251;58965;-61
2024/02/14 01:52:02;;;;;;;26.00;18.90;;;;;;;11.54;65.03;100548.61;109537;1251;73603;-61
2024/02/14 01:54:30;;;;;;;28.60;20.80;;;;;;;11.54;65.19;100550.89;109522;1251;72571;-61
2024/02/14 01:57:01;;;;;;;33.70;21.30;;;;;;;11.55;65.38;100549.98;109359;1254;71402;-60
2024/02/14 01:59:30;;;;;;;32.40;22.40;;;;;;;11.57;65.45;100547.33;109397;1257;60272;-59
2024/02/14 02:01:58;;;;;;;29.80;21.60;;;;;;;11.60;65.69;100546.40;109511;1251;58980;-59
2024/02/14 02:04:25;;;;;;;32.30;23.40;;;;;;;11.63;65.75;100549.16;109093;1257;74802;-59
2024/02/14 02:06:56;;;;;;;29.70;22.10;;;;;;;11.65;65.87;100548.25;109490;1253;71630;-59
2024/02/14 02:09:24;;;;;;;33.30;22.20;;;;;;;11.67;66.04;100548.40;109493;1252;71561;-59
2024/02/14 02:11:55;;;;;;;34.30;24.30;;;;;;;11.68;66.23;100544.87;109184;1254;60456;-59
2024/02/14 02:14:23;;;;;;;37.10;24.10;;;;;;;11.70;66.24;100544.15;109539;1254;59016;-60
2024/02/14 02:16:52;;;;;;;37.70;25.00;;;;;;;11.72;66.23;100549.19;109223;1253;74734;-59
2024/02/14 02:19:19;;;;;;;37.60;26.20;;;;;;;11.75;66.30;100551.79;109352;1254;71564;-60
2024/02/14 02:21:47;;;;;;;36.10;25.50;;;;;;;11.77;66.22;100555.80;109489;1252;72715;-60
2024/02/14 02:24:18;;;;;;;34.90;23.90;;;;;;;11.78;66.13;100557.18;109509;1253;59376;-62
2024/02/14 02:26:46;;;;;;;29.80;22.50;;;;;;;11.77;66.02;100554.57;109555;1252;60665;-61
2024/02/14 02:29:15;;;;;;;33.60;22.90;;;;;;;11.76;66.04;100554.05;109493;1254;74690;-61
2024/02/14 02:31:42;;;;;;;35.50;22.70;;;;;;;11.75;66.00;100558.64;109515;1253;73303;-64
2024/02/14 02:34:10;;;;;;;33.60;23.20;;;;;;;11.73;66.05;100558.85;109197;1254;72748;-61
2024/02/14 02:36:41;;;;;;;33.30;22.60;;;;;;;11.73;66.12;100557.27;109486;1253;58991;-63
2024/02/14 02:39:09;;;;;;;36.80;23.60;;;;;;;11.74;66.18;100558.84;109182;1253;60018;-64
2024/02/14 02:41:37;;;;;;;39.30;25.00;;;;;;;11.75;66.02;100559.70;109473;1253;74666;-65
2024/02/14 02:44:06;;;;;;;34.70;23.20;;;;;;;11.75;66.07;100559.17;109463;1253;72858;-66
2024/02/14 02:46:34;;;;;;;32.90;21.60;;;;;;;11.75;66.06;100560.40;108964;1253;72772;-64
2024/02/14 02:49:02;;;;;;;31.40;22.20;;;;;;;11.75;66.12;100561.61;109416;1254;59159;-63
2024/02/14 02:51:31;;;;;;;36.70;23.10;;;;;;;11.75;66.10;100560.55;109249;1254;60543;-64
2024/02/14 02:53:58;;;;;;;35.40;23.60;;;;;;;11.76;66.14;100562.13;109479;1255;74735;-62
2024/02/14 02:56:27;;;;;;;34.00;22.70;;;;;;;11.78;66.22;100564.73;108928;1254;71885;-62
2024/02/14 02:58:58;;;;;;;26.30;21.30;;;;;;;11.81;66.30;100569.95;109507;1254;72759;-62
2024/02/14 03:01:28;;;;;;;29.10;21.00;;;;;;;11.84;66.30;100575.72;109474;1253;59262;-62
2024/02/14 03:03:55;;;;;;;29.20;21.00;;;;;;;11.86;66.32;100576.92;109453;1254;58997;-61
2024/02/14 03:06:23;;;;;;;26.30;20.70;;;;;;;11.88;66.24;100578.65;109503;1253;74709;-61
2024/02/14 03:08:52;;;;;;;29.80;21.90;;;;;;;11.88;66.26;100580.05;109333;1250;72842;-61
2024/02/14 03:11:19;;;;;;;29.90;22.40;;;;;;;11.89;66.23;100582.83;109419;1251;72692;-60
2024/02/14 03:13:49;;;;;;;32.70;23.00;;;;;;;11.89;66.20;100584.61;109487;1252;60457;-61
2024/02/14 03:16:17;;;;;;;34.00;23.50;;;;;;;11.88;66.01;100585.67;109281;1251;60232;-60
2024/02/14 03:18:44;;;;;;;34.40;24.80;;;;;;;11.86;66.01;100585.17;109524;1251;74741;-62
2024/02/14 03:21:12;;;;;;;32.60;24.90;;;;;;;11.84;66.00;100590.66;109551;1256;72884;-62
2024/02/14 03:23:41;;;;;;;36.70;25.10;;;;;;;11.83;65.95;100591.57;109510;1251;72738;-62
2024/02/14 03:26:10;;;;;;;36.20;24.60;;;;;;;11.80;66.01;100590.38;109444;1251;59004;-61
2024/02/14 03:28:38;;;;;;;30.20;22.60;;;;;;;11.78;66.16;100591.10;109510;1251;60169;-62
2024/02/14 03:31:05;;;;;;;33.40;23.60;;;;;;;11.76;66.12;100593.59;109521;1251;74697;-61
2024/02/14 03:33:33;;;;;;;32.60;22.90;;;;;;;11.76;66.23;100595.00;109552;1251;71565;-61
2024/02/14 03:36:01;;;;;;;31.80;22.10;;;;;;;11.76;66.24;100593.95;109528;1251;72637;-61
2024/02/14 03:38:31;;;;;;;27.30;21.60;;;;;;;11.77;66.35;100591.82;109509;1251;60122;-63
2024/02/14 03:40:59;;;;;;;30.90;23.30;;;;;;;11.78;66.33;100589.52;109480;1251;59087;-61
2024/02/14 03:43:27;;;;;;;29.20;21.80;;;;;;;11.78;66.34;100589.52;109535;1256;74709;-63
2024/02/14 03:45:56;;;;;;;27.70;21.90;;;;;;;11.80;66.46;100588.96;109551;1251;72995;-63
2024/02/14 03:48:23;;;;;;;30.00;22.10;;;;;;;11.81;66.54;100587.19;109326;1251;73192;-62
2024/02/14 03:50:52;;;;;;;31.80;23.90;;;;;;;11.83;66.64;100586.81;109563;1251;61696;-62
2024/02/14 03:53:19;;;;;;;29.80;22.40;;;;;;;11.85;66.63;100586.60;109279;1250;60093;-61
2024/02/14 03:55:47;;;;;;;31.50;22.50;;;;;;;11.87;66.71;100588.16;109548;1251;74783;-61
2024/02/14 03:58:17;;;;;;;31.80;21.60;;;;;;;11.91;66.72;100594.06;109506;1256;72839;-61
2024/02/14 04:00:45;;;;;;;29.30;22.10;;;;;;;11.95;66.73;100595.61;109462;1251;72675;-61
2024/02/14 04:03:12;;;;;;;26.80;21.00;;;;;;;11.99;66.72;100599.41;109493;1254;60264;-62
2024/02/14 04:05:40;;;;;;;31.20;20.90;;;;;;;12.01;66.64;100596.74;109148;1254;60099;-62
2024/02/14 04:08:09;;;;;;;28.30;21.30;;;;;;;12.03;66.48;100605.33;109501;1251;73442;-60
2024/02/14 04:10:37;;;;;;;32.60;22.70;;;;;;;12.03;66.54;100609.73;109167;1251;72841;-59
2024/02/14 04:13:05;;;;;;;32.30;22.70;;;;;;;12.02;66.37;100610.81;109490;1254;71411;-60
2024/02/14 04:15:34;;;;;;;33.60;24.10;;;;;;;11.99;66.15;100613.84;109429;1251;59003;-60
2024/02/14 04:18:02;;;;;;;35.50;24.20;;;;;;;11.95;65.95;100614.95;109520;1251;59025;-60
2024/02/14 04:20:34;;;;;;;34.60;24.00;;;;;;;11.90;65.96;100616.21;109345;1251;75210;-60
2024/02/14 04:23:04;;;;;;;33.00;24.20;;;;;;;11.86;65.99;100616.13;109251;1251;72853;-60
2024/02/14 04:25:31;;;;;;;34.50;24.00;;;;;;;11.82;66.00;100616.70;109479;1255;71471;-61
2024/02/14 04:28:04;;;;;;;36.90;25.40;;;;;;;11.79;66.05;100614.63;109472;1251;60602;-61
2024/02/14 04:30:31;;;;;;;37.80;25.10;;;;;;;11.76;65.97;100616.27;109225;1251;59020;-62
2024/02/14 04:32:59;;;;;;;35.70;25.70;;;;;;;11.75;66.06;100619.09;109198;1251;73450;-63
2024/02/14 04:35:27;;;;;;;36.70;24.80;;;;;;;11.75;66.15;100621.02;109525;1250;71642;-63
2024/02/14 04:37:55;;;;;;;34.80;24.70;;;;;;;11.76;66.20;100621.36;109508;1251;72642;-61
2024/02/14 04:40:24;;;;;;;37.10;24.30;;;;;;;11.77;66.20;100628.73;109505;1255;60068;-62
2024/02/14 04:42:52;;;;;;;39.30;25.10;;;;;;;11.78;66.25;100631.70;109510;1251;58981;-61
2024/02/14 04:45:20;;;;;;;36.70;24.80;;;;;;;11.78;66.34;100629.58;109282;1251;74856;-62
2024/02/14 04:47:48;;;;;;;35.00;24.20;;;;;;;11.77;66.26;100635.23;109514;1256;71448;-60
2024/02/14 04:50:16;;;;;;;38.00;24.80;;;;;;;11.77;66.38;100638.58;109235;1251;72134;-62
2024/02/14 04:52:44;;;;;;;31.40;23.60;;;;;;;11.79;66.42;100638.55;109483;1251;60306;-62
2024/02/14 04:55:12;;;;;;;32.00;22.30;;;;;;;11.81;66.34;100642.56;109301;1251;59389;-61
2024/02/14 04:57:40;;;;;;;28.30;20.40;;;;;;;11.83;66.48;100642.52;109460;1251;73431;-60
2024/02/14 05:00:09;;;;;;;25.70;18.30;;;;;;;11.86;66.57;100643.54;109519;1253;72864;-59
2024/02/14 05:02:37;;;;;;;31.50;19.60;;;;;;;11.88;66.62;100646.84;109528;1251;72726;-59
2024/02/14 05:05:08;;;;;;;28.90;20.10;;;;;;;11.92;66.57;100650.84;109476;1251;62361;-57
2024/02/14 05:07:36;;;;;;;28.60;19.80;;;;;;;11.95;66.50;100652.04;109543;1251;59814;-60
2024/02/14 05:10:04;;;;;;;29.10;18.50;;;;;;;12.01;67.19;100657.59;109277;1251;74717;-58
2024/02/14 05:12:31;;;;;;;30.50;19.80;;;;;;;12.12;67.96;100663.20;109560;1251;71378;-58
2024/02/14 05:14:59;;;;;;;32.40;19.60;;;;;;;12.19;68.08;100662.56;109441;1251;72718;-60
2024/02/14 05:17:27;;;;;;;26.00;16.20;;;;;;;12.22;67.81;100668.84;109222;1252;61895;-57
2024/02/14 05:19:55;;;;;;;26.50;18.80;;;;;;;12.20;67.65;100672.74;109344;1251;60054;-59
2024/02/14 05:22:23;;;;;;;25.20;16.80;;;;;;;12.19;67.41;100673.13;109479;1251;74777;-60
2024/02/14 05:24:51;;;;;;;22.10;16.40;;;;;;;12.18;67.04;100668.73;109576;1251;73264;-60
2024/02/14 05:27:18;;;;;;;23.20;15.10;;;;;;;12.17;66.79;100670.52;109228;1252;72743;-62
2024/02/14 05:29:50;;;;;;;21.10;15.40;;;;;;;12.15;66.74;100673.01;109482;1251;60141;-61
2024/02/14 05:32:18;;;;;;;25.00;16.20;;;;;;;12.12;66.61;100680.96;109488;1251;60092;-60
2024/02/14 05:34:45;;;;;;;20.10;13.30;;;;;;;12.11;66.51;100688.54;109584;1251;74395;-63
2024/02/14 05:37:13;;;;;;;17.00;12.40;;;;;;;12.11;66.60;100691.54;109250;1251;72818;-59
2024/02/14 05:39:41;;;;;;;17.40;13.10;;;;;;;12.12;66.49;100692.23;109513;1251;71358;-57
2024/02/14 05:42:08;;;;;;;16.10;11.80;;;;;;;12.14;66.46;100691.14;109518;1251;60138;-58
2024/02/14 05:44:36;;;;;;;16.00;11.10;;;;;;;12.18;66.44;100698.29;109486;1251;58894;-58
2024/02/14 05:47:05;;;;;;;14.70;10.60;;;;;;;12.22;66.72;100704.92;109483;1251;74676;-57
2024/02/14 05:49:32;;;;;;;15.00;11.90;;;;;;;12.26;66.74;100708.35;109189;1251;71665;-59
2024/02/14 05:52:00;;;;;;;16.10;12.50;;;;;;;12.30;66.64;100712.52;109545;1251;71857;-60
2024/02/14 05:54:27;;;;;;;19.00;13.30;;;;;;;12.32;66.38;100714.42;109633;1251;59984;-59
2024/02/14 05:56:57;;;;;;;18.50;14.00;;;;;;;12.31;66.07;100723.75;109585;1251;60148;-59
2024/02/14 05:59:24;;;;;;;19.60;15.00;;;;;;;12.29;65.67;100726.06;109517;1250;74676;-59
2024/02/14 06:01:53;;;;;;;22.10;16.40;;;;;;;12.25;65.41;100724.38;109440;1251;71981;-59
2024/02/14 06:04:20;;;;;;;22.70;17.00;;;;;;;12.19;65.24;100726.59;109350;1251;73245;-60
2024/02/14 06:06:48;;;;;;;23.70;16.50;;;;;;;12.12;65.21;100730.20;109494;1252;60322;-59
2024/02/14 06:09:16;;;;;;;21.90;17.10;;;;;;;12.09;65.20;100732.01;109497;1251;59327;-60
2024/02/14 06:11:44;;;;;;;21.90;16.50;;;;;;;12.06;65.12;100730.98;109475;1251;74990;-59
2024/02/14 06:14:12;;;;;;;21.50;16.00;;;;;;;12.03;65.02;100739.65;109339;1251;72608;-59
2024/02/14 06:16:40;;;;;;;25.90;18.10;;;;;;;12.01;65.05;100741.09;109509;1251;71447;-59
2024/02/14 06:19:09;;;;;;;24.70;19.00;;;;;;;12.00;65.05;100748.67;109158;1251;60709;-59
2024/02/14 06:21:37;;;;;;;27.30;19.00;;;;;;;12.01;64.94;100746.70;109305;1251;60529;-59
2024/02/14 06:24:04;;;;;;;30.20;20.80;;;;;;;12.01;64.93;100749.17;109448;1251;74729;-59
2024/02/14 06:26:33;;;;;;;34.00;21.40;;;;;;;12.01;64.98;100749.88;109590;1250;72281;-59
2024/02/14 06:29:02;;;;;;;38.60;22.20;;;;;;;12.01;65.08;100750.94;109511;1251;72363;-58
2024/02/14 06:31:35;;;;;;;42.20;25.40;;;;;;;12.01;65.02;100752.17;109537;1251;59112;-59
2024/02/14 06:34:02;;;;;;;40.40;23.30;;;;;;;12.01;65.03;100749.88;109547;1251;60074;-58
2024/02/14 06:36:30;;;;;;;39.30;23.90;;;;;;;12.00;65.03;100754.46;109567;1251;73410;-60
2024/02/14 06:38:58;;;;;;;36.20;22.70;;;;;;;11.97;64.99;100755.73;109193;1250;72843;-60
2024/02/14 06:41:26;;;;;;;34.70;21.30;;;;;;;11.93;65.09;100757.35;109389;1251;72713;-60
2024/02/14 06:43:54;;;;;;;35.40;20.50;;;;;;;11.90;65.31;100760.70;109124;1251;60497;-59
2024/02/14 06:46:22;;;;;;;32.40;19.00;;;;;;;11.88;65.35;100767.06;109141;1251;60066;-60
2024/02/14 06:48:50;;;;;;;30.80;17.60;;;;;;;11.88;65.36;100774.28;109319;1251;73382;-60
2024/02/14 06:51:18;;;;;;;31.00;18.10;;;;;;;11.88;65.54;100774.45;109152;1254;71696;-59
2024/02/14 06:53:46;;;;;;;29.10;16.40;;;;;;;11.88;65.47;100774.27;109216;1251;71426;-59
2024/02/14 06:56:14;;;;;;;25.40;17.20;;;;;;;11.88;65.75;100773.39;109368;1251;59277;-60
2024/02/14 06:58:42;;;;;;;26.90;18.00;;;;;;;11.89;65.82;100782.17;109387;1251;59405;-60
2024/02/14 07:01:12;;;;;;;25.50;16.30;;;;;;;11.90;65.93;100787.96;109340;1251;74758;-59
2024/02/14 07:03:40;;;;;;;26.80;17.00;;;;;;;11.91;66.00;100789.53;109181;1251;71630;-58
2024/02/14 07:06:08;;;;;;;30.30;15.50;;;;;;;11.91;66.02;100794.80;109364;1251;71718;-59
2024/02/14 07:08:36;;;;;;;23.70;15.90;;;;;;;11.92;66.06;100800.42;109379;1251;59362;-58
2024/02/14 07:11:04;;;;;;;25.00;17.00;;;;;;;11.93;66.09;100798.84;109313;1251;60087;-59
2024/02/14 07:13:31;;;;;;;32.30;18.10;;;;;;;11.94;66.21;100801.30;109308;1254;74753;-59
2024/02/14 07:15:59;;;;;;;30.80;18.30;;;;;;;11.96;66.26;100803.04;109423;1251;72334;-59
2024/02/14 07:18:26;;;;;;;39.50;19.60;;;;;;;11.99;66.27;100805.82;109398;1251;71365;-59
2024/02/14 07:20:56;;;;;;;32.40;19.00;;;;;;;12.01;66.19;100805.09;109305;1251;60443;-59
2024/02/14 07:23:25;;;;;;;33.40;20.70;;;;;;;12.02;66.27;100808.39;109422;1251;60073;-61
2024/02/14 07:25:53;;;;;;;32.20;21.20;;;;;;;12.03;66.17;100808.04;109245;1251;73477;-61
2024/02/14 07:28:21;;;;;;;33.50;20.30;;;;;;;12.05;66.28;100813.47;109398;1251;71352;-60
2024/02/14 07:30:48;;;;;;;28.10;19.40;;;;;;;12.07;66.29;100817.30;109425;1251;73613;-60
2024/02/14 07:33:18;;;;;;;28.20;18.80;;;;;;;12.10;66.19;100820.45;109374;1251;59138;-61
2024/02/14 07:35:47;;;;;;;28.30;17.20;;;;;;;12.13;66.18;100818.10;109409;1251;58989;-60
2024/02/14 07:38:16;;;;;;;26.70;16.50;;;;;;;12.17;66.13;100820.88;109154;1251;74764;-60
2024/02/14 07:40:44;;;;;;;24.20;16.10;;;;;;;12.19;66.10;100816.26;109438;1251;71869;-61
2024/02/14 07:43:11;;;;;;;24.90;13.80;;;;;;;12.22;66.16;100819.58;109384;1251;71135;-60
2024/02/14 07:45:40;;;;;;;21.70;13.00;;;;;;;12.25;65.91;100814.42;109402;1251;60119;-61
2024/02/14 07:48:08;;;;;;;20.60;14.20;;;;;;;12.28;65.75;100815.10;109387;1251;59389;-60
2024/02/14 07:50:37;;;;;;;16.70;12.00;;;;;;;12.29;65.70;100811.20;109472;1251;73488;-59
2024/02/14 07:53:06;;;;;;;16.00;10.90;;;;;;;12.32;65.60;100812.92;109255;1251;72880;-60
2024/02/14 07:55:34;;;;;;;17.70;9.50;;;;;;;12.35;65.36;100813.95;109406;1251;72709;-60
2024/02/14 07:58:02;;;;;;;12.30;7.90;;;;;;;12.35;65.18;100816.41;109446;1250;60120;-60
2024/02/14 08:00:30;;;;;;;10.60;7.30;;;;;;;12.35;65.01;100815.88;109461;1251;59259;-59
2024/02/14 08:02:58;;;;;;;15.10;7.80;;;;;;;12.35;64.95;100816.40;109348;1250;73511;-60
2024/02/14 08:05:25;;;;;;;11.10;6.10;;;;;;;12.38;64.94;100817.95;109423;1251;73231;-60
2024/02/14 08:07:53;;;;;;;14.00;6.50;;;;;;;12.41;64.85;100814.20;109003;1251;72705;-59
2024/02/14 08:10:21;;;;;;;15.80;6.90;;;;;;;12.47;65.05;100812.54;109385;1251;59859;-59
2024/02/14 08:12:48;;;;;;;18.30;7.20;;;;;;;12.53;64.99;100817.04;109168;1251;60317;-59
2024/02/14 08:15:16;;;;;;;10.50;6.40;;;;;;;12.56;64.87;100819.09;109161;1251;72507;-60
2024/02/14 08:17:44;;;;;;;15.60;6.10;;;;;;;12.60;64.70;100820.45;109424;1251;71685;-60
2024/02/14 08:20:13;;;;;;;9.20;6.20;;;;;;;12.62;64.64;100821.27;109372;1251;72485;-60
2024/02/14 08:22:42;;;;;;;12.00;6.60;;;;;;;12.64;64.41;100823.90;109396;1253;60064;-60
2024/02/14 08:25:10;;;;;;;9.70;6.70;;;;;;;12.64;64.55;100825.29;109351;1251;60081;-60
2024/02/14 08:27:37;;;;;;;15.60;7.30;;;;;;;12.63;64.53;100826.37;109419;1250;74722;-60
2024/02/14 08:30:06;;;;;;;11.60;7.20;;;;;;;12.64;64.49;100827.41;109160;1251;72360;-60
2024/02/14 08:32:34;;;;;;;9.80;6.50;;;;;;;12.65;64.56;100827.21;109253;1254;73130;-58
2024/02/14 08:35:02;;;;;;;14.10;7.60;;;;;;;12.66;64.59;100833.02;109412;1253;59013;-59
2024/02/14 08:37:30;;;;;;;12.20;6.90;;;;;;;12.67;64.54;100835.27;109462;1251;59002;-60
2024/02/14 08:39:58;;;;;;;10.50;6.60;;;;;;;12.68;64.67;100840.89;109365;1254;74319;-60
2024/02/14 08:42:26;;;;;;;11.60;6.70;;;;;;;12.70;64.51;100839.83;109438;1251;72623;-58
2024/02/14 08:44:54;;;;;;;10.40;6.70;;;;;;;12.69;64.54;100839.65;109369;1251;73706;-59
2024/02/14 08:47:22;;;;;;;14.50;5.80;;;;;;;12.70;64.62;100838.59;109416;1251;60165;-58
2024/02/14 08:49:49;;;;;;;8.70;5.40;;;;;;;12.71;64.60;100840.51;109257;1251;59423;-58
2024/02/14 08:52:18;;;;;;;5.80;4.40;;;;;;;12.70;64.56;100840.00;109145;1251;74773;-58
2024/02/14 08:54:46;;;;;;;13.90;5.00;;;;;;;12.70;64.55;100844.73;109412;1251;73484;-59
2024/02/14 08:57:15;;;;;;;6.00;4.00;;;;;;;12.70;64.72;100845.80;109420;1251;72114;-58
2024/02/14 08:59:46;;;;;;;7.10;3.40;;;;;;;12.71;64.63;100850.36;109222;1251;59205;-59
2024/02/14 09:02:14;;;;;;;6.10;3.50;;;;;;;12.73;64.77;100848.93;109377;1251;59467;-59
2024/02/14 09:04:42;;;;;;;6.30;3.30;;;;;;;12.72;64.78;100850.70;109394;1251;75170;-59
2024/02/14 09:07:10;;;;;;;6.60;3.90;;;;;;;12.72;65.11;100853.16;109279;1250;72057;-59
2024/02/14 09:09:37;;;;;;;6.90;3.70;;;;;;;12.74;65.20;100854.20;109420;1251;72736;-59
2024/02/14 09:12:06;;;;;;;4.60;2.80;;;;;;;12.77;65.23;100853.61;109370;1251;61752;-59
2024/02/14 09:14:35;;;;;;;4.40;3.10;;;;;;;12.81;65.21;100855.31;109348;1251;60566;-60
2024/02/14 09:17:03;;;;;;;3.80;2.50;;;;;;;12.87;65.19;100850.30;109429;1251;74196;-59
2024/02/14 09:19:30;;;;;;;4.50;2.80;;;;;;;12.93;65.20;100852.66;109265;1251;72830;-59
2024/02/14 09:21:58;;;;;;;3.90;2.90;;;;;;;12.99;65.12;100851.87;109392;1252;73228;-58
2024/02/14 09:24:27;;;;;;;4.40;4.00;;;;;;;13.07;65.09;100858.44;109420;1251;59707;-59
2024/02/14 09:26:55;;;;;;;3.50;3.00;;;;;;;13.13;64.88;100855.14;109434;1251;60079;-58
2024/02/14 09:29:23;;;;;;;3.90;3.00;;;;;;;13.21;64.73;100854.13;109421;1251;73413;-60
2024/02/14 09:31:51;;;;;;;6.10;3.00;;;;;;;13.28;64.70;100849.79;109422;1251;72843;-59
2024/02/14 09:34:20;;;;;;;4.90;3.00;;;;;;;13.37;64.43;100844.19;109408;1251;73740;-60
2024/02/14 09:36:53;;;;;;;5.10;3.00;;;;;;;13.45;64.34;100840.17;109427;1251;61738;-59
2024/02/14 09:39:21;;;;;;;3.80;2.90;;;;;;;13.53;64.13;100845.85;109409;1251;60323;-59
2024/02/14 09:41:52;;;;;;;3.60;2.80;;;;;;;13.61;63.96;100842.35;109410;1251;76681;-59
2024/02/14 09:44:21;;;;;;;4.00;2.60;;;;;;;13.71;63.59;100839.85;109064;1251;71436;-59
2024/02/14 09:46:48;;;;;;;2.80;2.40;;;;;;;13.80;63.40;100834.40;109251;1254;73001;-60
2024/02/14 09:49:17;;;;;;;2.30;2.10;;;;;;;13.86;63.06;100834.98;109293;1253;60036;-59
2024/02/14 09:51:45;;;;;;;2.90;2.40;;;;;;;13.90;62.69;100831.91;109411;1251;59363;-58
2024/02/14 09:54:13;;;;;;;3.10;2.70;;;;;;;13.94;62.56;100836.76;109254;1251;74710;-58
2024/02/14 09:56:41;;;;;;;3.10;2.40;;;;;;;13.97;62.27;100831.77;109391;1251;74069;-58
2024/02/14 09:59:08;;;;;;;2.80;2.60;;;;;;;13.97;62.15;100834.23;109422;1251;71518;-59
2024/02/14 10:01:38;;;;;;;4.50;3.00;;;;;;;13.99;62.10;100833.50;109001;1251;59139;-58
2024/02/14 10:04:06;;;;;;;4.10;2.60;;;;;;;14.01;62.01;100839.62;109360;1251;59370;-59
2024/02/14 10:06:33;;;;;;;4.80;2.80;;;;;;;14.02;61.76;100841.55;109411;1251;75575;-59
2024/02/14 10:09:01;;;;;;;3.20;2.80;;;;;;;14.01;61.60;100838.21;109226;1251;72726;-59
2024/02/14 10:11:32;;;;;;;4.80;2.80;;;;;;;14.01;61.47;100837.70;109391;1251;70675;-59
2024/02/14 10:14:02;;;;;;;3.70;2.70;;;;;;;14.02;61.47;100835.53;109378;1251;59141;-59
2024/02/14 10:16:32;;;;;;;3.40;2.70;;;;;;;14.07;61.27;100836.14;109256;1251;59186;-59
2024/02/14 10:19:00;;;;;;;3.40;2.80;;;;;;;14.11;61.29;100840.12;109430;1251;73940;-59
2024/02/14 10:21:28;;;;;;;3.80;3.00;;;;;;;14.15;61.17;100839.33;109413;1251;72720;-60
2024/02/14 10:23:59;;;;;;;4.30;2.80;;;;;;;14.19;61.07;100840.83;109438;1251;71038;-62
2024/02/14 10:26:29;;;;;;;4.00;3.30;;;;;;;14.23;61.04;100836.67;109048;1254;61493;-61
2024/02/14 10:28:58;;;;;;;3.70;3.20;;;;;;;14.27;60.96;100838.02;109383;1251;59883;-61
2024/02/14 10:31:26;;;;;;;5.40;3.40;;;;;;;14.33;60.97;100835.39;109410;1251;73871;-61
2024/02/14 10:33:56;;;;;;;3.60;3.00;;;;;;;14.40;60.69;100836.30;109087;1251;72304;-60
2024/02/14 10:36:25;;;;;;;3.50;2.80;;;;;;;14.47;60.39;100840.94;109388;1253;74802;-60
2024/02/14 10:38:54;;;;;;;7.70;3.80;;;;;;;14.52;60.13;100838.16;109100;1251;59158;-61
2024/02/14 10:41:22;;;;;;;5.10;3.00;;;;;;;14.57;60.07;100838.73;109083;1254;59005;-58
2024/02/14 10:43:50;;;;;;;3.10;2.80;;;;;;;14.61;59.53;100836.19;109031;1255;74654;-61
2024/02/14 10:46:25;;;;;;;3.50;2.40;;;;;;;14.65;59.35;100837.55;109031;1254;72599;-62
2024/02/14 10:48:54;;;;;;;3.00;2.70;;;;;;;14.67;59.17;100835.57;108956;1256;73555;-61
2024/02/14 10:51:22;;;;;;;3.50;2.20;;;;;;;14.68;58.83;100835.17;108964;1257;58994;-61
2024/02/14 10:53:50;;;;;;;5.70;2.50;;;;;;;14.68;58.61;100830.95;108964;1254;59250;-61
2024/02/14 10:56:21;;;;;;;3.10;2.80;;;;;;;14.68;58.46;100832.88;108835;1257;74479;-60
2024/02/14 10:58:49;;;;;;;3.70;2.60;;;;;;;14.70;58.41;100833.89;108921;1257;72598;-58
2024/02/14 11:01:17;;;;;;;2.80;2.20;;;;;;;14.71;58.34;100835.27;108876;1257;73191;-58
2024/02/14 11:03:45;;;;;;;3.80;2.50;;;;;;;14.72;58.19;100833.84;108833;1257;61587;-59
2024/02/14 11:06:17;;;;;;;3.00;2.70;;;;;;;14.73;58.19;100835.25;108838;1257;59094;-61
2024/02/14 11:08:57;;;;;;;2.50;2.20;;;;;;;14.74;58.20;100834.86;108942;1259;73691;-59